Time;durP1;ratioP1;P1;durP2;ratioP2;P2;SDS_P1;SDS_P2;PMS_P1;PMS_P2;Temp;Humidity;BMP_temperature;BMP_pressure;BME280_temperature;BME280_humidity;BME280_pressure;Samples;Min_cycle;Max_cycle;Signal;HPM_P1;HPM_P2
2023/08/28 00:02:08;;;;;;;14.52;13.10;;;12.90;99.90;;;;;;5071606;28;20398;-62
2023/08/28 00:04:34;;;;;;;17.92;14.57;;;12.80;99.90;;;;;;5072859;28;20033;-62
2023/08/28 00:07:00;;;;;;;18.38;15.05;;;12.80;99.90;;;;;;5072520;28;20120;-61
2023/08/28 00:09:25;;;;;;;15.23;13.45;;;13.00;99.90;;;;;;5073144;28;20040;-57
2023/08/28 00:11:54;;;;;;;17.20;15.40;;;12.80;99.90;;;;;;5071171;28;20609;-61
2023/08/28 00:14:20;;;;;;;14.02;12.60;;;12.90;99.90;;;;;;5070286;28;20061;-58
2023/08/28 00:16:46;;;;;;;16.65;14.95;;;12.80;99.90;;;;;;5072255;28;20043;-59
2023/08/28 00:19:12;;;;;;;18.25;16.23;;;12.90;99.90;;;;;;5072330;28;20025;-60
2023/08/28 00:21:38;;;;;;;16.70;15.00;;;12.80;99.90;;;;;;5072849;28;20036;-63
2023/08/28 00:24:04;;;;;;;17.30;15.50;;;12.90;99.90;;;;;;5071316;28;20051;-60
2023/08/28 00:26:30;;;;;;;18.83;16.95;;;12.70;99.90;;;;;;5072634;28;20045;-57
2023/08/28 00:28:56;;;;;;;17.65;15.80;;;12.70;99.90;;;;;;5072835;28;20040;-58
2023/08/28 00:31:22;;;;;;;17.80;15.93;;;12.70;99.90;;;;;;5071336;28;20113;-58
2023/08/28 00:33:48;;;;;;;19.58;15.13;;;12.70;99.90;;;;;;5071540;28;20119;-58
2023/08/28 00:36:15;;;;;;;18.95;17.05;;;12.70;99.90;;;;;;5072538;28;20542;-60
2023/08/28 00:38:41;;;;;;;20.73;16.48;;;12.70;99.90;;;;;;5072638;28;20032;-58
2023/08/28 00:41:07;;;;;;;19.10;17.10;;;12.60;99.90;;;;;;5072809;28;20032;-57
2023/08/28 00:43:33;;;;;;;19.90;17.70;;;12.70;99.90;;;;;;5070806;28;20037;-60
2023/08/28 00:46:00;;;;;;;19.33;17.23;;;12.60;99.90;;;;;;5072365;28;20047;-60
2023/08/28 00:48:28;;;;;;;16.35;14.70;;;12.60;99.90;;;;;;5070690;28;20127;-59
2023/08/28 00:50:53;;;;;;;16.30;14.60;;;12.60;99.90;;;;;;5072450;28;20040;-56
2023/08/28 00:53:20;;;;;;;15.73;14.15;;;12.50;99.90;;;;;;5072426;28;20105;-59
2023/08/28 00:55:46;;;;;;;15.63;13.65;;;12.50;99.90;;;;;;5072340;28;20102;-59
2023/08/28 00:58:13;;;;;;;17.92;16.13;;;12.50;99.90;;;;;;5072213;28;20036;-58
2023/08/28 01:00:41;;;;;;;18.73;16.83;;;12.30;99.90;;;;;;5070742;28;20033;-60
2023/08/28 01:03:07;;;;;;;20.58;17.67;;;12.30;99.90;;;;;;5072111;28;20484;-58
2023/08/28 01:05:44;;;;;;;17.42;15.73;;;12.40;99.90;;;;;;5072249;28;20039;-57
2023/08/28 01:08:38;;;;;;;13.68;8.95;;;12.30;99.90;;;;;;5070597;28;20145;-58
2023/08/28 01:11:23;;;;;;;19.07;17.03;;;12.20;99.90;;;;;;5071994;28;20115;-62
2023/08/28 01:14:03;;;;;;;19.83;17.77;;;12.30;99.90;;;;;;5071647;28;20480;-59
2023/08/28 01:16:30;;;;;;;19.95;17.92;;;12.30;99.90;;;;;;5072059;28;20551;-59
2023/08/28 01:18:57;;;;;;;21.25;18.77;;;12.50;99.90;;;;;;5070660;28;20097;-58
2023/08/28 01:21:23;;;;;;;20.08;18.08;;;12.50;99.90;;;;;;5070128;28;20033;-61
2023/08/28 01:23:57;;;;;;;19.02;16.75;;;12.40;99.90;;;;;;5071231;28;20098;-64
2023/08/28 01:26:24;;;;;;;19.58;17.42;;;12.40;99.90;;;;;;5069178;28;20044;-60
2023/08/28 01:28:50;;;;;;;19.55;17.40;;;12.30;99.90;;;;;;5071533;28;20052;-59
2023/08/28 01:31:16;;;;;;;21.85;19.65;;;12.40;99.90;;;;;;5071374;28;20075;-60
2023/08/28 01:33:43;;;;;;;21.20;19.02;;;12.20;99.90;;;;;;5071724;28;20036;-58
2023/08/28 01:36:36;;;;;;;22.60;20.27;;;12.20;99.90;;;;;;5070217;28;20042;-59
2023/08/28 01:39:15;;;;;;;23.35;20.92;;;12.30;99.90;;;;;;5071095;28;20452;-58
2023/08/28 01:41:42;;;;;;;22.77;20.02;;;12.20;99.90;;;;;;5071746;28;20036;-58
2023/08/28 01:44:09;;;;;;;23.15;20.60;;;12.30;99.90;;;;;;5071372;28;20040;-61
2023/08/28 01:46:35;;;;;;;22.70;20.30;;;12.20;99.90;;;;;;5071323;28;20084;-61
2023/08/28 01:49:00;;;;;;;22.25;19.85;;;12.20;99.90;;;;;;5070981;28;20072;-60
2023/08/28 01:51:26;;;;;;;26.38;22.08;;;12.20;99.90;;;;;;5071234;28;20471;-58
2023/08/28 01:53:53;;;;;;;24.38;20.27;;;12.20;99.90;;;;;;5071314;28;20044;-60
2023/08/28 01:56:21;;;;;;;20.83;18.65;;;12.20;99.90;;;;;;5071632;28;20502;-58
2023/08/28 01:58:52;;;;;;;20.17;18.00;;;12.30;99.90;;;;;;5070900;28;20064;-56
2023/08/28 02:01:18;;;;;;;23.33;20.92;;;12.20;99.90;;;;;;5070007;28;20490;-58
2023/08/28 02:03:44;;;;;;;22.20;19.95;;;12.20;99.90;;;;;;5071042;28;20115;-59
2023/08/28 02:06:10;;;;;;;24.77;19.85;;;12.20;99.90;;;;;;5071260;28;20040;-59
2023/08/28 02:08:36;;;;;;;21.77;19.50;;;12.20;99.90;;;;;;5069887;28;20078;-61
2023/08/28 02:11:01;;;;;;;23.60;21.10;;;12.20;99.90;;;;;;5071220;28;20045;-59
2023/08/28 02:13:27;;;;;;;27.50;22.75;;;12.30;99.90;;;;;;5069219;28;20395;-56
2023/08/28 02:15:53;;;;;;;21.40;10.38;;;12.30;99.90;;;;;;5070955;28;20045;-59
2023/08/28 02:18:19;;;;;;;23.23;20.77;;;12.20;99.90;;;;;;5070444;28;20040;-59
2023/08/28 02:20:45;;;;;;;24.58;20.77;;;12.20;99.90;;;;;;5071217;28;20502;-59
2023/08/28 02:23:11;;;;;;;21.38;19.02;;;12.30;99.90;;;;;;5070663;28;20481;-57
2023/08/28 02:25:48;;;;;;;19.90;17.50;;;12.30;99.90;;;;;;5070852;28;20039;-58
2023/08/28 02:28:14;;;;;;;22.92;18.40;;;12.40;99.90;;;;;;5070935;28;20093;-61
2023/08/28 02:30:40;;;;;;;18.90;10.23;;;12.40;99.90;;;;;;5069663;28;20049;-58
2023/08/28 02:33:06;;;;;;;21.27;17.52;;;12.50;99.90;;;;;;5070797;28;20492;-60
2023/08/28 02:35:31;;;;;;;20.48;17.70;;;12.40;99.90;;;;;;5070808;28;20039;-59
2023/08/28 02:37:57;;;;;;;20.15;16.98;;;12.60;99.90;;;;;;5070673;28;20446;-57
2023/08/28 02:40:24;;;;;;;20.73;18.50;;;12.50;99.90;;;;;;5070819;28;20075;-58
2023/08/28 02:42:50;;;;;;;21.30;19.05;;;12.70;99.90;;;;;;5070516;28;20041;-62
2023/08/28 02:45:16;;;;;;;22.73;20.23;;;12.60;99.90;;;;;;5070841;28;20480;-55
2023/08/28 02:47:41;;;;;;;33.35;23.83;;;12.60;99.90;;;;;;5069858;28;20028;-58
2023/08/28 02:50:07;;;;;;;20.23;10.90;;;12.90;99.90;;;;;;5070688;28;20041;-60
2023/08/28 02:52:33;;;;;;;20.48;18.23;;;12.80;99.90;;;;;;5072984;28;20064;-57
2023/08/28 02:54:59;;;;;;;21.55;11.10;;;12.70;99.90;;;;;;5074698;28;20048;-59
2023/08/28 02:57:24;;;;;;;20.80;18.05;;;12.80;99.90;;;;;;5074558;28;20097;-57
2023/08/28 02:59:50;;;;;;;19.17;17.27;;;12.70;99.90;;;;;;5074594;28;20048;-57
2023/08/28 03:02:16;;;;;;;19.55;17.55;;;12.50;99.90;;;;;;5074511;28;20472;-62
2023/08/28 03:04:44;;;;;;;22.08;17.75;;;12.60;99.90;;;;;;5074602;28;20131;-59
2023/08/28 03:07:10;;;;;;;25.83;20.20;;;12.60;99.90;;;;;;5074615;28;20091;-57
2023/08/28 03:09:36;;;;;;;18.38;16.50;;;12.60;99.90;;;;;;5074309;28;20487;-59
2023/08/28 03:12:02;;;;;;;18.17;16.25;;;12.70;99.90;;;;;;5074247;28;20036;-57
2023/08/28 03:14:28;;;;;;;21.02;18.52;;;12.50;99.90;;;;;;5073651;28;20506;-59
2023/08/28 03:16:53;;;;;;;19.92;17.92;;;12.70;99.90;;;;;;5073991;28;20096;-61
2023/08/28 03:19:19;;;;;;;22.63;18.65;;;12.60;99.90;;;;;;5073769;28;20036;-55
2023/08/28 03:21:46;;;;;;;20.05;17.83;;;12.70;99.90;;;;;;5074281;28;20352;-59
2023/08/28 03:24:11;;;;;;;20.48;18.27;;;12.70;99.90;;;;;;5074227;28;20040;-60
2023/08/28 03:26:37;;;;;;;18.30;16.25;;;12.70;99.90;;;;;;5072803;28;20040;-59
2023/08/28 03:29:04;;;;;;;23.33;18.40;;;12.70;99.90;;;;;;5074307;28;20115;-56
2023/08/28 03:31:30;;;;;;;19.45;17.27;;;12.50;99.90;;;;;;5073786;28;20048;-60
2023/08/28 03:33:56;;;;;;;18.33;16.42;;;12.40;99.90;;;;;;5073517;28;20055;-59
2023/08/28 03:36:22;;;;;;;19.05;17.08;;;12.50;99.90;;;;;;5073856;28;20388;-58
2023/08/28 03:38:47;;;;;;;21.95;18.90;;;12.50;99.90;;;;;;5056000;28;20035;-61
2023/08/28 03:41:13;;;;;;;21.60;18.42;;;12.50;99.90;;;;;;5073608;28;20032;-60
2023/08/28 03:43:39;;;;;;;28.63;20.98;;;12.50;99.90;;;;;;5074087;28;20044;-60
2023/08/28 03:46:05;;;;;;;22.85;18.50;;;12.50;99.90;;;;;;5072215;28;20072;-58
2023/08/28 03:48:30;;;;;;;25.67;20.55;;;12.40;99.90;;;;;;5072091;28;20052;-57
2023/08/28 03:50:56;;;;;;;18.40;15.82;;;12.30;99.90;;;;;;5073464;28;20040;-59
2023/08/28 03:53:22;;;;;;;28.30;21.20;;;12.30;99.90;;;;;;5073334;28;20048;-56
2023/08/28 03:55:48;;;;;;;23.08;17.58;;;12.30;99.90;;;;;;5073265;28;20371;-62
2023/08/28 03:58:14;;;;;;;22.40;18.60;;;12.30;99.90;;;;;;5072044;28;20040;-58
2023/08/28 04:00:39;;;;;;;23.67;18.75;;;12.40;99.90;;;;;;5073578;28;20044;-58
2023/08/28 04:03:05;;;;;;;36.40;22.42;;;12.30;99.90;;;;;;5072150;28;20052;-60
2023/08/28 04:05:37;;;;;;;29.55;21.73;;;12.30;99.90;;;;;;5073612;28;20036;-58
2023/08/28 04:08:03;;;;;;;26.40;19.75;;;12.30;99.90;;;;;;5073484;28;20539;-59
2023/08/28 04:10:29;;;;;;;20.67;15.18;;;12.40;99.90;;;;;;5073408;28;20036;-64
2023/08/28 04:12:55;;;;;;;28.38;20.00;;;12.40;99.90;;;;;;5073270;28;20043;-61
2023/08/28 04:15:21;;;;;;;21.63;18.17;;;12.30;99.90;;;;;;5072511;28;20053;-59
2023/08/28 04:17:47;;;;;;;25.85;10.25;;;12.30;99.90;;;;;;5071158;28;20044;-63
2023/08/28 04:20:14;;;;;;;17.45;10.23;;;12.10;99.90;;;;;;5072162;28;20111;-59
2023/08/28 04:22:41;;;;;;;17.85;9.57;;;12.20;99.90;;;;;;5072060;28;20040;-59
2023/08/28 04:25:08;;;;;;;23.02;19.20;;;12.10;99.90;;;;;;5071877;28;20044;-59
2023/08/28 04:27:34;;;;;;;19.17;10.13;;;12.20;99.90;;;;;;5072099;28;20561;-57
2023/08/28 04:30:00;;;;;;;20.42;10.50;;;12.10;99.90;;;;;;5053628;28;20082;-58
2023/08/28 04:32:25;;;;;;;27.20;22.45;;;12.10;99.90;;;;;;5070417;28;20040;-60
2023/08/28 04:34:51;;;;;;;25.65;21.55;;;12.00;99.90;;;;;;5071511;28;20506;-59
2023/08/28 04:37:17;;;;;;;30.63;22.92;;;12.10;99.90;;;;;;5072012;28;20025;-63
2023/08/28 04:39:43;;;;;;;31.23;23.80;;;11.90;99.90;;;;;;5071665;28;20094;-58
2023/08/28 04:42:10;;;;;;;28.42;23.48;;;12.00;99.90;;;;;;5071973;28;20432;-61
2023/08/28 04:44:36;;;;;;;20.20;11.05;;;12.00;99.90;;;;;;5070716;28;20116;-58
2023/08/28 04:47:02;;;;;;;20.30;11.73;;;11.90;99.90;;;;;;5071969;28;20305;-60
2023/08/28 04:49:28;;;;;;;34.60;25.85;;;11.90;99.90;;;;;;5070879;28;20041;-59
2023/08/28 04:51:53;;;;;;;30.58;24.60;;;12.00;99.90;;;;;;5070425;28;20040;-61
2023/08/28 04:54:19;;;;;;;30.83;24.27;;;11.80;99.90;;;;;;5071441;28;20049;-59
2023/08/28 04:56:45;;;;;;;35.58;26.30;;;12.00;99.90;;;;;;5071571;28;20048;-60
2023/08/28 04:59:12;;;;;;;28.75;24.17;;;12.00;99.90;;;;;;5071352;28;20035;-58
2023/08/28 05:01:38;;;;;;;21.42;11.88;;;12.00;99.90;;;;;;5069977;28;20040;-58
2023/08/28 05:04:04;;;;;;;31.05;24.77;;;11.90;99.90;;;;;;5071271;28;20063;-59
2023/08/28 05:06:30;;;;;;;30.50;24.55;;;11.80;99.90;;;;;;5071302;28;20043;-58
2023/08/28 05:08:56;;;;;;;24.85;22.25;;;11.80;99.90;;;;;;5071081;28;20473;-59
2023/08/28 05:11:22;;;;;;;33.20;26.20;;;11.90;99.90;;;;;;5070824;28;21318;-57
2023/08/28 05:13:47;;;;;;;22.80;12.07;;;11.90;99.90;;;;;;5029376;28;1113774;-65
2023/08/28 05:16:13;;;;;;;30.13;24.40;;;12.00;99.90;;;;;;5072185;28;20415;-56
2023/08/28 05:18:39;;;;;;;33.42;25.88;;;11.80;99.90;;;;;;5071219;28;20384;-58
2023/08/28 05:21:05;;;;;;;32.58;25.48;;;11.90;99.90;;;;;;5071723;28;20044;-61
2023/08/28 05:23:31;;;;;;;33.35;27.20;;;11.90;99.90;;;;;;5071779;28;20043;-59
2023/08/28 05:25:57;;;;;;;30.20;24.42;;;11.90;99.90;;;;;;5071739;28;20127;-62
2023/08/28 05:28:22;;;;;;;32.05;26.02;;;12.00;99.90;;;;;;5070217;28;20037;-60
2023/08/28 05:30:48;;;;;;;22.10;12.90;;;12.10;99.90;;;;;;5071665;28;20105;-59
2023/08/28 05:33:14;;;;;;;28.95;25.40;;;12.10;99.90;;;;;;5070217;28;20076;-58
2023/08/28 05:35:41;;;;;;;33.13;26.98;;;12.20;99.90;;;;;;5071630;28;20028;-61
2023/08/28 05:38:06;;;;;;;24.13;13.02;;;12.10;99.90;;;;;;5071749;28;20033;-57
2023/08/28 05:40:32;;;;;;;29.13;25.08;;;12.00;99.90;;;;;;5070248;28;21120;-59
2023/08/28 05:42:58;;;;;;;33.15;26.75;;;12.20;99.90;;;;;;5069956;28;20500;-59
2023/08/28 05:45:24;;;;;;;36.25;28.92;;;12.10;99.90;;;;;;5071390;28;20036;-60
2023/08/28 05:47:50;;;;;;;27.48;13.05;;;12.30;99.90;;;;;;5071048;28;20427;-60
2023/08/28 05:50:18;;;;;;;30.75;25.80;;;12.20;99.90;;;;;;5071548;28;20094;-60
2023/08/28 05:52:44;;;;;;;30.48;27.17;;;12.50;99.90;;;;;;5069822;28;20115;-58
2023/08/28 05:55:10;;;;;;;37.15;29.42;;;12.60;99.90;;;;;;5071110;28;20040;-60
2023/08/28 05:57:35;;;;;;;33.17;28.02;;;12.60;99.90;;;;;;5071177;28;20032;-63
2023/08/28 06:00:02;;;;;;;31.02;26.83;;;12.70;99.90;;;;;;5070998;28;20037;-59
2023/08/28 06:02:28;;;;;;;31.38;27.60;;;12.80;99.90;;;;;;5071457;28;20360;-57
2023/08/28 06:04:54;;;;;;;31.02;27.65;;;12.60;99.90;;;;;;5069671;28;20143;-59
2023/08/28 06:07:19;;;;;;;28.73;24.92;;;12.70;99.90;;;;;;5071230;28;20502;-59
2023/08/28 06:09:45;;;;;;;30.00;26.58;;;12.80;99.90;;;;;;5069052;28;20029;-61
2023/08/28 06:12:11;;;;;;;31.65;26.40;;;12.90;99.90;;;;;;5071315;28;20037;-58
2023/08/28 06:14:36;;;;;;;30.63;26.00;;;12.80;99.90;;;;;;5070443;28;20087;-58
2023/08/28 06:17:06;;;;;;;30.52;25.75;;;13.00;99.90;;;;;;5066694;28;20037;-60
2023/08/28 06:19:32;;;;;;;25.52;14.10;;;13.00;99.90;;;;;;5070073;28;20399;-60
2023/08/28 06:22:07;;;;;;;27.67;14.60;;;13.00;99.90;;;;;;5067936;28;20037;-58
2023/08/28 06:24:33;;;;;;;28.95;24.63;;;13.00;99.90;;;;;;5066826;28;20040;-58
2023/08/28 06:26:59;;;;;;;30.88;24.77;;;13.00;99.90;;;;;;5069309;28;20503;-61
2023/08/28 06:29:25;;;;;;;26.05;23.35;;;12.90;99.90;;;;;;5060376;28;20377;-59
2023/08/28 06:31:51;;;;;;;30.88;15.25;;;13.20;99.90;;;;;;5057867;28;20121;-57
2023/08/28 06:34:17;;;;;;;27.23;24.30;;;13.10;99.90;;;;;;5062257;28;20055;-59
2023/08/28 06:36:45;;;;;;;27.70;24.38;;;13.30;99.90;;;;;;5061120;28;20040;-57
2023/08/28 06:39:11;;;;;;;28.08;24.92;;;13.40;99.90;;;;;;5062693;28;20040;-62
2023/08/28 06:41:38;;;;;;;27.92;24.50;;;13.40;99.90;;;;;;5071696;28;20037;-61
2023/08/28 06:44:04;;;;;;;26.20;23.35;;;13.50;99.90;;;;;;5060580;28;20048;-58
2023/08/28 06:46:31;;;;;;;29.05;25.02;;;13.40;99.90;;;;;;5062855;28;20552;-61
2023/08/28 06:48:56;;;;;;;25.33;22.58;;;13.70;99.90;;;;;;5061923;28;20035;-60
2023/08/28 06:51:22;;;;;;;27.65;24.58;;;13.50;99.90;;;;;;5062705;28;20029;-60
2023/08/28 06:53:49;;;;;;;24.20;21.77;;;13.70;99.90;;;;;;5062633;28;20048;-61
2023/08/28 06:56:15;;;;;;;27.35;24.27;;;13.80;99.90;;;;;;5060856;28;20488;-62
2023/08/28 06:58:41;;;;;;;24.65;21.17;;;14.00;99.90;;;;;;5062422;28;20089;-61
2023/08/28 07:01:07;;;;;;;26.15;22.88;;;13.90;99.90;;;;;;5061776;28;20485;-55
2023/08/28 07:03:32;;;;;;;28.85;16.17;;;14.10;99.90;;;;;;5071998;28;20044;-60
2023/08/28 07:05:58;;;;;;;22.85;18.42;;;14.30;99.90;;;;;;5060316;28;20037;-58
2023/08/28 07:08:24;;;;;;;23.67;21.17;;;14.10;99.90;;;;;;5061916;28;20051;-61
2023/08/28 07:10:49;;;;;;;22.52;19.83;;;14.30;99.90;;;;;;5060596;28;20051;-63
2023/08/28 07:13:15;;;;;;;25.40;15.27;;;14.30;99.90;;;;;;5061648;28;20041;-57
2023/08/28 07:15:41;;;;;;;21.33;19.13;;;14.80;99.90;;;;;;5059068;28;20443;-62
2023/08/28 07:18:06;;;;;;;30.52;15.25;;;14.80;99.90;;;;;;5060110;28;20036;-63
2023/08/28 07:20:32;;;;;;;21.42;17.98;;;14.90;99.90;;;;;;5059715;28;20028;-61
2023/08/28 07:22:58;;;;;;;22.13;14.48;;;15.00;99.90;;;;;;5058440;28;20033;-60
2023/08/28 07:25:24;;;;;;;23.50;13.07;;;15.00;99.90;;;;;;5062000;28;20036;-58
2023/08/28 07:27:51;;;;;;;19.95;12.38;;;15.10;99.90;;;;;;5061201;28;20483;-61
2023/08/28 07:30:17;;;;;;;19.38;12.05;;;15.10;99.90;;;;;;5061980;28;20033;-59
2023/08/28 07:32:42;;;;;;;18.27;15.65;;;15.10;99.90;;;;;;5059734;28;20047;-59
2023/08/28 07:35:08;;;;;;;19.48;11.98;;;15.50;99.90;;;;;;5060950;28;20121;-58
2023/08/28 07:37:35;;;;;;;16.95;14.13;;;15.50;99.90;;;;;;5063664;28;20412;-60
2023/08/28 07:40:03;;;;;;;13.18;10.93;;;15.50;99.90;;;;;;5064743;28;20071;-59
2023/08/28 07:42:28;;;;;;;11.20;9.38;;;15.40;99.90;;;;;;5061904;28;20040;-59
2023/08/28 07:44:54;;;;;;;10.85;7.72;;;15.60;99.90;;;;;;5063546;28;20055;-60
2023/08/28 07:47:20;;;;;;;8.18;6.10;;;15.70;99.90;;;;;;5047221;28;20079;-60
2023/08/28 07:49:46;;;;;;;7.30;4.28;;;15.70;99.90;;;;;;5062411;28;20045;-61
2023/08/28 07:52:12;;;;;;;7.35;4.57;;;15.80;99.90;;;;;;5063138;28;20040;-61
2023/08/28 07:54:38;;;;;;;7.72;3.78;;;15.90;99.90;;;;;;5064761;28;20074;-59
2023/08/28 07:57:04;;;;;;;9.65;4.55;;;15.90;99.90;;;;;;5062826;28;20128;-59
2023/08/28 07:59:30;;;;;;;6.75;4.03;;;16.20;99.90;;;;;;5064749;28;20040;-58
2023/08/28 08:01:57;;;;;;;5.55;3.70;;;16.10;99.90;;;;;;5064744;28;20041;-60
2023/08/28 08:04:24;;;;;;;5.60;3.30;;;16.20;99.90;;;;;;5064791;28;20437;-59
2023/08/28 08:06:50;;;;;;;4.13;2.67;;;16.30;99.90;;;;;;5063326;28;20833;-59
2023/08/28 08:09:16;;;;;;;4.80;2.90;;;16.30;99.90;;;;;;5064002;28;20040;-60
2023/08/28 08:11:42;;;;;;;9.43;3.00;;;16.40;99.90;;;;;;5062505;28;20083;-61
2023/08/28 08:14:07;;;;;;;4.97;2.80;;;16.60;99.90;;;;;;5063171;28;20090;-59
2023/08/28 08:16:33;;;;;;;6.47;3.13;;;16.80;99.90;;;;;;5063687;28;20041;-63
2023/08/28 08:18:59;;;;;;;5.60;2.47;;;16.70;99.90;;;;;;5059414;28;20036;-60
2023/08/28 08:21:25;;;;;;;5.47;1.75;;;16.70;99.90;;;;;;5064752;28;20032;-60
2023/08/28 08:23:51;;;;;;;4.78;2.05;;;16.80;99.90;;;;;;5065198;28;20033;-59
2023/08/28 08:26:16;;;;;;;3.45;1.73;;;16.70;99.90;;;;;;5064286;28;20063;-62
2023/08/28 08:28:42;;;;;;;3.63;1.70;;;16.50;99.90;;;;;;5064152;28;20037;-61
2023/08/28 08:31:08;;;;;;;3.35;1.52;;;16.60;99.90;;;;;;5063753;28;20036;-64
2023/08/28 08:33:33;;;;;;;5.15;1.40;;;16.50;99.90;;;;;;5065076;28;20503;-59
2023/08/28 08:36:00;;;;;;;5.00;1.60;;;16.60;99.90;;;;;;5064637;28;20041;-63
2023/08/28 08:38:25;;;;;;;4.47;1.70;;;16.60;99.90;;;;;;5064571;28;20047;-61
2023/08/28 08:40:53;;;;;;;5.45;1.52;;;16.80;99.90;;;;;;5063553;28;20036;-60
2023/08/28 08:43:19;;;;;;;3.90;1.52;;;17.00;99.90;;;;;;5064645;28;20089;-61
2023/08/28 08:45:47;;;;;;;3.83;1.70;;;17.10;99.90;;;;;;5064679;28;20036;-61
2023/08/28 08:48:17;;;;;;;6.43;1.45;;;17.20;99.90;;;;;;5063518;28;20471;-62
2023/08/28 08:50:47;;;;;;;4.97;2.08;;;17.20;99.90;;;;;;5064240;28;20043;-59
2023/08/28 08:53:25;;;;;;;2.92;1.40;;;17.40;99.90;;;;;;5065411;28;20048;-61
2023/08/28 08:55:54;;;;;;;5.60;2.00;;;17.30;99.90;;;;;;5065218;28;20101;-61
2023/08/28 08:58:21;;;;;;;5.63;1.60;;;17.40;99.90;;;;;;5061428;28;20044;-61
2023/08/28 09:00:48;;;;;;;2.67;1.15;;;17.50;99.90;;;;;;5064140;28;20028;-57
2023/08/28 09:03:14;;;;;;;3.45;1.10;;;17.50;99.90;;;;;;5065129;28;20723;-62
2023/08/28 09:05:41;;;;;;;3.92;0.90;;;17.40;99.90;;;;;;5063420;28;20029;-61
2023/08/28 09:08:08;;;;;;;2.65;0.70;;;17.60;99.90;;;;;;5062789;28;20487;-60
2023/08/28 09:10:34;;;;;;;2.65;0.70;;;17.60;99.90;;;;;;5062126;28;20067;-64
2023/08/28 09:13:00;;;;;;;2.75;0.73;;;17.80;99.90;;;;;;5061160;28;20102;-57
2023/08/28 09:15:26;;;;;;;5.07;1.05;;;17.90;99.90;;;;;;5063619;28;20048;-62
2023/08/28 09:17:52;;;;;;;5.15;1.10;;;18.00;99.90;;;;;;5061569;28;20471;-60
2023/08/28 09:20:21;;;;;;;2.55;0.80;;;18.00;99.90;;;;;;5061292;28;20047;-61
2023/08/28 09:22:51;;;;;;;2.10;0.70;;;18.10;99.90;;;;;;5061521;28;20059;-58
2023/08/28 09:25:18;;;;;;;4.20;0.90;;;18.10;99.90;;;;;;5063656;28;20488;-62
2023/08/28 09:27:50;;;;;;;3.30;0.93;;;18.30;99.90;;;;;;5062470;28;20073;-62
2023/08/28 09:30:38;;;;;;;3.25;0.82;;;18.50;99.90;;;;;;5060056;28;20085;-61
2023/08/28 09:33:06;;;;;;;3.45;1.00;;;18.60;99.90;;;;;;5060419;28;20036;-61
2023/08/28 09:35:42;;;;;;;3.58;1.02;;;18.70;99.90;;;;;;5062659;28;20036;-61
2023/08/28 09:38:09;;;;;;;2.17;0.80;;;18.90;99.90;;;;;;5060462;28;20044;-60
2023/08/28 09:40:38;;;;;;;5.25;1.10;;;19.10;99.90;;;;;;5059788;28;20051;-57
2023/08/28 09:43:12;;;;;;;3.53;0.70;;;19.20;99.90;;;;;;5053593;28;20067;-59
2023/08/28 09:45:38;;;;;;;3.33;1.00;;;19.40;99.90;;;;;;5063041;28;20044;-59
2023/08/28 09:48:05;;;;;;;5.10;0.90;;;19.60;99.90;;;;;;5062590;28;20083;-60
2023/08/28 09:50:33;;;;;;;4.20;0.90;;;19.70;99.90;;;;;;5063178;28;20072;-58
2023/08/28 09:53:08;;;;;;;2.67;0.73;;;19.70;99.90;;;;;;5060404;28;20068;-57
2023/08/28 09:56:00;;;;;;;3.63;1.00;;;19.60;99.90;;;;;;5055570;28;20049;-59
2023/08/28 09:58:28;;;;;;;2.92;0.70;;;19.40;99.90;;;;;;5059145;28;20037;-57
2023/08/28 10:00:56;;;;;;;4.97;0.90;;;19.30;99.90;;;;;;5060873;28;20045;-58
2023/08/28 10:03:23;;;;;;;1.65;0.80;;;19.20;99.90;;;;;;5062200;28;20039;-56
2023/08/28 10:05:51;;;;;;;2.72;1.00;;;19.10;99.90;;;;;;5063167;28;20681;-61
2023/08/28 10:08:17;;;;;;;3.75;1.10;;;19.10;99.90;;;;;;5062734;28;20055;-58
2023/08/28 10:10:52;;;;;;;3.00;0.82;;;19.10;99.90;;;;;;5061609;28;20040;-58
2023/08/28 10:13:22;;;;;;;3.40;0.90;;;19.00;99.90;;;;;;5060571;28;20047;-59
2023/08/28 10:16:06;;;;;;;2.25;0.65;;;18.90;99.90;;;;;;5063135;28;20047;-63
2023/08/28 10:18:38;;;;;;;3.10;0.50;;;18.80;99.90;;;;;;5060986;28;20079;-60
2023/08/28 10:21:06;;;;;;;4.80;0.60;;;18.90;99.90;;;;;;5057594;28;23422;-61
2023/08/28 10:23:33;;;;;;;2.55;0.70;;;18.80;99.90;;;;;;5060195;28;20503;-58
2023/08/28 10:26:01;;;;;;;3.03;0.75;;;18.70;99.90;;;;;;5061928;28;20040;-57
2023/08/28 10:28:28;;;;;;;1.65;0.60;;;18.50;99.90;;;;;;5061882;28;20037;-57
2023/08/28 10:30:54;;;;;;;3.30;0.80;;;18.40;99.90;;;;;;5062777;28;20480;-59
2023/08/28 10:33:21;;;;;;;2.75;0.90;;;18.30;99.90;;;;;;5062293;28;20487;-60
2023/08/28 10:35:51;;;;;;;2.80;0.55;;;18.30;99.90;;;;;;5063214;28;20051;-59
2023/08/28 10:38:22;;;;;;;1.77;0.63;;;18.20;99.90;;;;;;5062039;28;20517;-57
2023/08/28 10:40:55;;;;;;;3.25;0.70;;;18.30;99.90;;;;;;5058770;28;20044;-57
2023/08/28 10:43:22;;;;;;;3.17;0.93;;;18.20;99.90;;;;;;5060608;28;20067;-56
2023/08/28 10:45:57;;;;;;;2.83;0.80;;;18.20;99.90;;;;;;5062236;28;20139;-57
2023/08/28 10:48:23;;;;;;;3.00;0.70;;;18.20;99.90;;;;;;5060575;28;20037;-58
2023/08/28 10:50:54;;;;;;;3.47;0.80;;;18.30;99.90;;;;;;5060375;28;20056;-59
2023/08/28 10:53:20;;;;;;;3.70;0.70;;;18.30;99.90;;;;;;5062145;28;20071;-58
2023/08/28 10:55:57;;;;;;;3.10;0.77;;;18.40;99.90;;;;;;5055018;28;20032;-57
2023/08/28 10:58:23;;;;;;;2.05;0.70;;;18.40;99.90;;;;;;5057704;28;20044;-57
2023/08/28 11:01:09;;;;;;;2.85;0.70;;;18.50;99.90;;;;;;5059307;28;20025;-60
2023/08/28 11:03:57;;;;;;;2.33;0.80;;;18.70;99.90;;;;;;5057860;28;20037;-57
2023/08/28 11:06:37;;;;;;;2.83;0.63;;;18.80;99.90;;;;;;5057222;28;20060;-57
2023/08/28 11:09:27;;;;;;;2.80;0.70;;;19.10;99.90;;;;;;5055136;28;20053;-56
2023/08/28 11:12:02;;;;;;;2.78;0.55;;;19.40;99.90;;;;;;5055535;28;20055;-59
2023/08/28 11:14:53;;;;;;;3.03;0.60;;;19.80;99.90;;;;;;5054626;28;20102;-54
2023/08/28 11:17:20;;;;;;;2.08;0.60;;;20.00;99.90;;;;;;5064128;28;22949;-56
2023/08/28 11:19:55;;;;;;;1.75;0.60;;;20.30;99.90;;;;;;5065698;28;20025;-59
2023/08/28 11:22:40;;;;;;;3.30;0.60;;;20.60;99.90;;;;;;5064046;28;20124;-57
2023/08/28 11:25:09;;;;;;;2.70;0.70;;;20.90;99.90;;;;;;5062148;28;20052;-59
2023/08/28 11:27:42;;;;;;;4.75;0.77;;;21.20;99.90;;;;;;5065282;28;20043;-57
2023/08/28 11:30:09;;;;;;;4.00;1.00;;;21.10;99.90;;;;;;5064109;28;20252;-58
2023/08/28 11:32:36;;;;;;;2.45;0.60;;;21.00;99.90;;;;;;5065222;28;20041;-56
2023/08/28 11:35:04;;;;;;;5.75;0.85;;;20.70;99.90;;;;;;5064355;28;20045;-59
2023/08/28 11:37:39;;;;;;;4.50;0.77;;;20.50;99.90;;;;;;5064918;28;20040;-61
2023/08/28 11:40:07;;;;;;;3.00;0.77;;;20.30;99.90;;;;;;5065859;28;20155;-61
2023/08/28 11:42:34;;;;;;;3.47;0.80;;;20.10;99.90;;;;;;5065699;28;20074;-57
2023/08/28 11:44:59;;;;;;;2.13;0.60;;;19.90;99.90;;;;;;5066608;28;20063;-54
2023/08/28 11:47:30;;;;;;;2.67;0.65;;;19.80;99.90;;;;;;5063784;28;20739;-59
2023/08/28 11:49:57;;;;;;;2.10;0.70;;;19.70;99.90;;;;;;5064331;28;20126;-57
2023/08/28 11:52:23;;;;;;;2.08;0.52;;;19.60;99.90;;;;;;5064904;28;20071;-59
2023/08/28 11:54:50;;;;;;;1.50;0.50;;;19.50;99.90;;;;;;5065826;28;20040;-62
2023/08/28 11:57:17;;;;;;;2.92;0.68;;;19.40;99.90;;;;;;5064476;28;20456;-59
2023/08/28 11:59:48;;;;;;;5.05;0.75;;;19.40;99.90;;;;;;5065734;28;20519;-54
2023/08/28 12:02:15;;;;;;;2.90;0.82;;;19.40;99.90;;;;;;5065999;28;20083;-58
2023/08/28 12:04:41;;;;;;;4.07;0.80;;;19.40;99.90;;;;;;5064148;28;20056;-58
2023/08/28 12:07:27;;;;;;;3.08;0.95;;;19.90;99.90;;;;;;5064268;28;20029;-57
2023/08/28 12:09:54;;;;;;;3.95;0.80;;;19.60;99.90;;;;;;5062825;28;20036;-58
2023/08/28 12:12:20;;;;;;;2.17;0.60;;;19.70;99.90;;;;;;5063352;28;20028;-58
2023/08/28 12:14:48;;;;;;;1.88;0.80;;;19.70;99.90;;;;;;5062383;28;20056;-57
2023/08/28 12:17:18;;;;;;;4.07;0.90;;;19.90;99.90;;;;;;5063994;28;20041;-59
2023/08/28 12:19:44;;;;;;;5.07;0.80;;;19.90;99.90;;;;;;5061884;28;20036;-56
2023/08/28 12:22:11;;;;;;;3.50;0.90;;;20.00;99.90;;;;;;5064495;28;20074;-58
2023/08/28 12:24:45;;;;;;;3.85;0.77;;;20.10;99.90;;;;;;5060552;28;20032;-54
2023/08/28 12:27:13;;;;;;;1.33;0.68;;;20.20;99.90;;;;;;5062961;28;20037;-57
2023/08/28 12:29:41;;;;;;;2.10;0.70;;;20.20;99.90;;;;;;5059725;28;20044;-56
2023/08/28 12:32:14;;;;;;;3.65;0.80;;;20.20;99.90;;;;;;5063777;28;20120;-58
2023/08/28 12:34:40;;;;;;;3.05;0.80;;;20.30;99.90;;;;;;5064716;28;20040;-56
2023/08/28 12:37:09;;;;;;;4.13;0.90;;;20.40;99.90;;;;;;5102301;28;20396;-58
2023/08/28 12:39:35;;;;;;;2.90;0.70;;;20.60;99.90;;;;;;5071041;28;20055;-59